sensor_id;sensor_type;location;lat;lon;timestamp;P1;durP1;ratioP1;P2;durP2;ratioP2
77736;SDS011;66903;59.926;30.404;2023-05-07T00:02:01;1.60;;;0.50;;
77736;SDS011;66903;59.926;30.404;2023-05-07T00:07:03;0.80;;;0.30;;
77736;SDS011;66903;59.926;30.404;2023-05-07T00:12:04;1.67;;;0.50;;
77736;SDS011;66903;59.926;30.404;2023-05-07T00:17:04;0.85;;;0.32;;
77736;SDS011;66903;59.926;30.404;2023-05-07T00:22:05;1.23;;;0.40;;
77736;SDS011;66903;59.926;30.404;2023-05-07T00:27:06;1.55;;;0.50;;
77736;SDS011;66903;59.926;30.404;2023-05-07T00:32:06;1.77;;;0.43;;
77736;SDS011;66903;59.926;30.404;2023-05-07T00:37:08;1.17;;;0.40;;
77736;SDS011;66903;59.926;30.404;2023-05-07T00:42:08;1.23;;;0.47;;
77736;SDS011;66903;59.926;30.404;2023-05-07T00:47:09;1.20;;;0.35;;
77736;SDS011;66903;59.926;30.404;2023-05-07T00:52:13;1.27;;;0.43;;
77736;SDS011;66903;59.926;30.404;2023-05-07T00:57:15;1.55;;;0.47;;
77736;SDS011;66903;59.926;30.404;2023-05-07T01:02:16;1.25;;;0.43;;
77736;SDS011;66903;59.926;30.404;2023-05-07T01:07:16;1.20;;;0.40;;
77736;SDS011;66903;59.926;30.404;2023-05-07T01:12:17;1.00;;;0.50;;
77736;SDS011;66903;59.926;30.404;2023-05-07T01:17:18;3.70;;;0.40;;
77736;SDS011;66903;59.926;30.404;2023-05-07T01:22:37;1.10;;;0.40;;
77736;SDS011;66903;59.926;30.404;2023-05-07T01:27:38;1.08;;;0.40;;
77736;SDS011;66903;59.926;30.404;2023-05-07T01:37:51;1.95;;;0.50;;
77736;SDS011;66903;59.926;30.404;2023-05-07T01:42:52;1.38;;;0.50;;
77736;SDS011;66903;59.926;30.404;2023-05-07T01:47:54;1.05;;;0.50;;
77736;SDS011;66903;59.926;30.404;2023-05-07T01:52:57;2.00;;;0.65;;
77736;SDS011;66903;59.926;30.404;2023-05-07T01:57:58;1.63;;;0.57;;
77736;SDS011;66903;59.926;30.404;2023-05-07T02:02:58;1.10;;;0.50;;
77736;SDS011;66903;59.926;30.404;2023-05-07T02:07:59;1.75;;;0.50;;
77736;SDS011;66903;59.926;30.404;2023-05-07T02:13:00;2.25;;;0.68;;
77736;SDS011;66903;59.926;30.404;2023-05-07T02:18:05;1.42;;;0.57;;
77736;SDS011;66903;59.926;30.404;2023-05-07T02:23:08;1.48;;;0.60;;
77736;SDS011;66903;59.926;30.404;2023-05-07T02:28:08;1.38;;;0.50;;
77736;SDS011;66903;59.926;30.404;2023-05-07T02:33:09;0.93;;;0.47;;
77736;SDS011;66903;59.926;30.404;2023-05-07T02:38:12;1.70;;;0.52;;
77736;SDS011;66903;59.926;30.404;2023-05-07T02:43:12;2.97;;;0.75;;
77736;SDS011;66903;59.926;30.404;2023-05-07T02:48:13;3.17;;;0.85;;
77736;SDS011;66903;59.926;30.404;2023-05-07T02:53:14;1.90;;;0.73;;
77736;SDS011;66903;59.926;30.404;2023-05-07T02:58:15;1.85;;;0.60;;
77736;SDS011;66903;59.926;30.404;2023-05-07T03:03:15;1.80;;;0.60;;
77736;SDS011;66903;59.926;30.404;2023-05-07T03:08:17;2.25;;;0.70;;
77736;SDS011;66903;59.926;30.404;2023-05-07T03:13:17;2.10;;;0.60;;
77736;SDS011;66903;59.926;30.404;2023-05-07T03:18:18;1.48;;;0.50;;
77736;SDS011;66903;59.926;30.404;2023-05-07T03:23:19;1.83;;;0.63;;
77736;SDS011;66903;59.926;30.404;2023-05-07T03:28:20;0.85;;;0.30;;
77736;SDS011;66903;59.926;30.404;2023-05-07T03:33:20;1.98;;;0.70;;
77736;SDS011;66903;59.926;30.404;2023-05-07T03:38:21;2.33;;;0.80;;
77736;SDS011;66903;59.926;30.404;2023-05-07T03:43:21;1.63;;;0.60;;
77736;SDS011;66903;59.926;30.404;2023-05-07T03:48:22;1.70;;;0.43;;
77736;SDS011;66903;59.926;30.404;2023-05-07T03:53:22;1.65;;;0.60;;
77736;SDS011;66903;59.926;30.404;2023-05-07T03:58:23;1.60;;;0.50;;
77736;SDS011;66903;59.926;30.404;2023-05-07T04:03:23;1.63;;;0.52;;
77736;SDS011;66903;59.926;30.404;2023-05-07T04:08:24;1.17;;;0.40;;
77736;SDS011;66903;59.926;30.404;2023-05-07T04:13:25;0.95;;;0.40;;
77736;SDS011;66903;59.926;30.404;2023-05-07T04:18:25;0.95;;;0.38;;
77736;SDS011;66903;59.926;30.404;2023-05-07T04:23:26;1.10;;;0.38;;
77736;SDS011;66903;59.926;30.404;2023-05-07T04:28:26;1.10;;;0.47;;
77736;SDS011;66903;59.926;30.404;2023-05-07T04:33:27;10.35;;;0.70;;
77736;SDS011;66903;59.926;30.404;2023-05-07T04:38:28;1.05;;;0.30;;
77736;SDS011;66903;59.926;30.404;2023-05-07T04:43:30;1.45;;;0.43;;
77736;SDS011;66903;59.926;30.404;2023-05-07T04:48:30;1.13;;;0.50;;
77736;SDS011;66903;59.926;30.404;2023-05-07T04:53:31;0.57;;;0.30;;
77736;SDS011;66903;59.926;30.404;2023-05-07T04:58:31;0.68;;;0.30;;
77736;SDS011;66903;59.926;30.404;2023-05-07T05:03:32;0.73;;;0.40;;
77736;SDS011;66903;59.926;30.404;2023-05-07T05:08:32;1.50;;;0.47;;
77736;SDS011;66903;59.926;30.404;2023-05-07T05:13:33;0.70;;;0.30;;
77736;SDS011;66903;59.926;30.404;2023-05-07T05:18:34;1.33;;;0.52;;
77736;SDS011;66903;59.926;30.404;2023-05-07T05:23:34;0.65;;;0.47;;
77736;SDS011;66903;59.926;30.404;2023-05-07T05:28:35;1.13;;;0.40;;
77736;SDS011;66903;59.926;30.404;2023-05-07T05:33:36;1.60;;;0.50;;
77736;SDS011;66903;59.926;30.404;2023-05-07T05:38:36;1.85;;;0.45;;
77736;SDS011;66903;59.926;30.404;2023-05-07T05:43:37;2.00;;;0.50;;
77736;SDS011;66903;59.926;30.404;2023-05-07T05:48:37;0.95;;;0.30;;
77736;SDS011;66903;59.926;30.404;2023-05-07T05:53:38;1.58;;;0.50;;
77736;SDS011;66903;59.926;30.404;2023-05-07T05:58:38;4.80;;;0.50;;
77736;SDS011;66903;59.926;30.404;2023-05-07T06:03:39;1.45;;;0.50;;
77736;SDS011;66903;59.926;30.404;2023-05-07T06:08:39;1.75;;;0.30;;
77736;SDS011;66903;59.926;30.404;2023-05-07T06:13:40;0.88;;;0.40;;
77736;SDS011;66903;59.926;30.404;2023-05-07T06:18:40;1.85;;;0.30;;
77736;SDS011;66903;59.926;30.404;2023-05-07T06:23:41;1.08;;;0.50;;
77736;SDS011;66903;59.926;30.404;2023-05-07T06:28:41;0.70;;;0.30;;
77736;SDS011;66903;59.926;30.404;2023-05-07T06:33:44;1.45;;;0.40;;
77736;SDS011;66903;59.926;30.404;2023-05-07T06:38:45;2.08;;;0.60;;
77736;SDS011;66903;59.926;30.404;2023-05-07T06:43:45;0.85;;;0.30;;
77736;SDS011;66903;59.926;30.404;2023-05-07T06:48:46;0.68;;;0.25;;
77736;SDS011;66903;59.926;30.404;2023-05-07T06:53:47;0.93;;;0.32;;
77736;SDS011;66903;59.926;30.404;2023-05-07T06:58:47;0.20;;;0.20;;
77736;SDS011;66903;59.926;30.404;2023-05-07T07:03:48;1.25;;;0.50;;
77736;SDS011;66903;59.926;30.404;2023-05-07T07:08:48;0.52;;;0.30;;
77736;SDS011;66903;59.926;30.404;2023-05-07T07:13:49;1.17;;;0.38;;
77736;SDS011;66903;59.926;30.404;2023-05-07T07:18:50;1.10;;;0.40;;
77736;SDS011;66903;59.926;30.404;2023-05-07T07:23:51;1.08;;;0.40;;
77736;SDS011;66903;59.926;30.404;2023-05-07T07:28:51;1.27;;;0.45;;
77736;SDS011;66903;59.926;30.404;2023-05-07T07:33:52;1.90;;;0.50;;
77736;SDS011;66903;59.926;30.404;2023-05-07T07:38:53;1.90;;;0.47;;
77736;SDS011;66903;59.926;30.404;2023-05-07T07:43:54;1.25;;;0.38;;
77736;SDS011;66903;59.926;30.404;2023-05-07T07:48:54;1.27;;;0.30;;
77736;SDS011;66903;59.926;30.404;2023-05-07T07:53:55;0.63;;;0.32;;
77736;SDS011;66903;59.926;30.404;2023-05-07T07:58:57;0.55;;;0.35;;
77736;SDS011;66903;59.926;30.404;2023-05-07T08:03:58;0.98;;;0.45;;
77736;SDS011;66903;59.926;30.404;2023-05-07T08:09:03;1.00;;;0.43;;
77736;SDS011;66903;59.926;30.404;2023-05-07T08:14:03;1.27;;;0.50;;
77736;SDS011;66903;59.926;30.404;2023-05-07T08:19:04;0.75;;;0.40;;
77736;SDS011;66903;59.926;30.404;2023-05-07T08:24:05;1.73;;;0.40;;
77736;SDS011;66903;59.926;30.404;2023-05-07T08:29:06;1.05;;;0.60;;
77736;SDS011;66903;59.926;30.404;2023-05-07T08:34:07;3.97;;;0.50;;
77736;SDS011;66903;59.926;30.404;2023-05-07T08:39:08;1.95;;;0.60;;
77736;SDS011;66903;59.926;30.404;2023-05-07T08:44:11;19.00;;;6.88;;
77736;SDS011;66903;59.926;30.404;2023-05-07T08:49:13;21.25;;;9.18;;
77736;SDS011;66903;59.926;30.404;2023-05-07T08:54:16;16.08;;;8.10;;
77736;SDS011;66903;59.926;30.404;2023-05-07T08:59:17;14.18;;;7.40;;
77736;SDS011;66903;59.926;30.404;2023-05-07T09:04:18;12.00;;;5.25;;
77736;SDS011;66903;59.926;30.404;2023-05-07T09:09:18;11.15;;;4.95;;
77736;SDS011;66903;59.926;30.404;2023-05-07T09:14:21;9.13;;;3.55;;
77736;SDS011;66903;59.926;30.404;2023-05-07T09:19:25;8.40;;;3.63;;
77736;SDS011;66903;59.926;30.404;2023-05-07T09:24:26;7.78;;;3.00;;
77736;SDS011;66903;59.926;30.404;2023-05-07T09:29:28;6.40;;;2.25;;
77736;SDS011;66903;59.926;30.404;2023-05-07T09:34:30;6.80;;;2.67;;
77736;SDS011;66903;59.926;30.404;2023-05-07T09:44:41;5.10;;;1.90;;
77736;SDS011;66903;59.926;30.404;2023-05-07T09:49:43;5.03;;;1.77;;
77736;SDS011;66903;59.926;30.404;2023-05-07T09:54:47;4.32;;;1.40;;
77736;SDS011;66903;59.926;30.404;2023-05-07T09:59:50;4.60;;;1.33;;
77736;SDS011;66903;59.926;30.404;2023-05-07T10:04:52;4.57;;;1.40;;
77736;SDS011;66903;59.926;30.404;2023-05-07T10:09:55;3.80;;;1.13;;
77736;SDS011;66903;59.926;30.404;2023-05-07T10:14:59;4.20;;;1.70;;
77736;SDS011;66903;59.926;30.404;2023-05-07T10:19:59;5.10;;;1.73;;
77736;SDS011;66903;59.926;30.404;2023-05-07T10:25:00;4.93;;;2.38;;
77736;SDS011;66903;59.926;30.404;2023-05-07T10:30:08;5.22;;;2.42;;
77736;SDS011;66903;59.926;30.404;2023-05-07T10:35:26;4.85;;;2.33;;
77736;SDS011;66903;59.926;30.404;2023-05-07T10:40:32;4.93;;;2.15;;
77736;SDS011;66903;59.926;30.404;2023-05-07T10:45:33;8.63;;;2.38;;
77736;SDS011;66903;59.926;30.404;2023-05-07T10:50:34;6.43;;;1.80;;
77736;SDS011;66903;59.926;30.404;2023-05-07T10:55:35;5.40;;;2.40;;
77736;SDS011;66903;59.926;30.404;2023-05-07T11:05:36;4.05;;;1.60;;
77736;SDS011;66903;59.926;30.404;2023-05-07T11:10:50;4.07;;;1.38;;
77736;SDS011;66903;59.926;30.404;2023-05-07T11:15:51;6.13;;;1.30;;
77736;SDS011;66903;59.926;30.404;2023-05-07T11:20:53;3.70;;;1.30;;
77736;SDS011;66903;59.926;30.404;2023-05-07T11:26:05;6.28;;;1.48;;
77736;SDS011;66903;59.926;30.404;2023-05-07T11:31:10;4.18;;;1.42;;
77736;SDS011;66903;59.926;30.404;2023-05-07T11:36:11;4.43;;;1.20;;
77736;SDS011;66903;59.926;30.404;2023-05-07T11:41:12;5.60;;;1.23;;
77736;SDS011;66903;59.926;30.404;2023-05-07T11:46:13;6.05;;;1.92;;
77736;SDS011;66903;59.926;30.404;2023-05-07T11:51:14;2.88;;;1.00;;
77736;SDS011;66903;59.926;30.404;2023-05-07T11:56:19;4.15;;;0.98;;
77736;SDS011;66903;59.926;30.404;2023-05-07T12:01:20;2.13;;;0.60;;
77736;SDS011;66903;59.926;30.404;2023-05-07T12:06:21;2.20;;;0.60;;
77736;SDS011;66903;59.926;30.404;2023-05-07T12:11:22;1.67;;;0.57;;
77736;SDS011;66903;59.926;30.404;2023-05-07T12:16:25;2.13;;;0.63;;
77736;SDS011;66903;59.926;30.404;2023-05-07T12:21:26;1.10;;;0.43;;
77736;SDS011;66903;59.926;30.404;2023-05-07T12:26:26;3.20;;;0.50;;
77736;SDS011;66903;59.926;30.404;2023-05-07T12:31:28;0.82;;;0.30;;
77736;SDS011;66903;59.926;30.404;2023-05-07T12:36:36;1.65;;;0.40;;
77736;SDS011;66903;59.926;30.404;2023-05-07T12:41:57;1.60;;;0.40;;
77736;SDS011;66903;59.926;30.404;2023-05-07T12:47:02;0.82;;;0.30;;
77736;SDS011;66903;59.926;30.404;2023-05-07T12:52:03;1.58;;;0.40;;
77736;SDS011;66903;59.926;30.404;2023-05-07T12:57:07;0.40;;;0.38;;
77736;SDS011;66903;59.926;30.404;2023-05-07T13:02:09;0.77;;;0.30;;
77736;SDS011;66903;59.926;30.404;2023-05-07T13:07:09;1.45;;;0.50;;
77736;SDS011;66903;59.926;30.404;2023-05-07T13:12:10;2.47;;;0.50;;
77736;SDS011;66903;59.926;30.404;2023-05-07T13:17:10;1.42;;;0.45;;
77736;SDS011;66903;59.926;30.404;2023-05-07T13:22:11;1.98;;;0.50;;
77736;SDS011;66903;59.926;30.404;2023-05-07T13:27:11;1.75;;;0.70;;
77736;SDS011;66903;59.926;30.404;2023-05-07T13:32:12;2.00;;;0.40;;
77736;SDS011;66903;59.926;30.404;2023-05-07T13:37:13;1.88;;;0.60;;
77736;SDS011;66903;59.926;30.404;2023-05-07T13:42:13;1.10;;;0.40;;
77736;SDS011;66903;59.926;30.404;2023-05-07T13:47:14;2.40;;;0.70;;
77736;SDS011;66903;59.926;30.404;2023-05-07T13:52:14;1.25;;;0.50;;
77736;SDS011;66903;59.926;30.404;2023-05-07T13:57:15;1.42;;;0.50;;
77736;SDS011;66903;59.926;30.404;2023-05-07T14:02:16;1.95;;;0.43;;
77736;SDS011;66903;59.926;30.404;2023-05-07T14:07:16;1.98;;;0.60;;
77736;SDS011;66903;59.926;30.404;2023-05-07T14:12:17;2.45;;;0.63;;
77736;SDS011;66903;59.926;30.404;2023-05-07T14:17:18;1.48;;;0.40;;
77736;SDS011;66903;59.926;30.404;2023-05-07T14:22:19;1.55;;;0.50;;
77736;SDS011;66903;59.926;30.404;2023-05-07T14:27:20;26.92;;;11.20;;
77736;SDS011;66903;59.926;30.404;2023-05-07T14:32:55;221.93;;;95.65;;
77736;SDS011;66903;59.926;30.404;2023-05-07T14:37:56;237.75;;;106.75;;
77736;SDS011;66903;59.926;30.404;2023-05-07T14:42:57;214.60;;;89.90;;
77736;SDS011;66903;59.926;30.404;2023-05-07T14:47:57;151.73;;;70.43;;
77736;SDS011;66903;59.926;30.404;2023-05-07T14:52:58;126.97;;;54.58;;
77736;SDS011;66903;59.926;30.404;2023-05-07T14:57:58;97.03;;;41.80;;
77736;SDS011;66903;59.926;30.404;2023-05-07T15:03:04;86.57;;;35.58;;
77736;SDS011;66903;59.926;30.404;2023-05-07T15:08:07;66.88;;;27.95;;
77736;SDS011;66903;59.926;30.404;2023-05-07T15:13:08;50.10;;;21.35;;
77736;SDS011;66903;59.926;30.404;2023-05-07T15:18:12;35.25;;;16.20;;
77736;SDS011;66903;59.926;30.404;2023-05-07T15:23:12;35.78;;;15.85;;
77736;SDS011;66903;59.926;30.404;2023-05-07T15:28:14;31.02;;;13.27;;
77736;SDS011;66903;59.926;30.404;2023-05-07T15:33:14;28.20;;;11.60;;
77736;SDS011;66903;59.926;30.404;2023-05-07T15:38:15;18.60;;;9.23;;
77736;SDS011;66903;59.926;30.404;2023-05-07T15:43:15;20.67;;;8.63;;
77736;SDS011;66903;59.926;30.404;2023-05-07T15:48:16;21.65;;;8.10;;
77736;SDS011;66903;59.926;30.404;2023-05-07T15:53:16;17.10;;;7.65;;
77736;SDS011;66903;59.926;30.404;2023-05-07T15:58:17;14.00;;;5.75;;
77736;SDS011;66903;59.926;30.404;2023-05-07T16:03:20;11.52;;;4.85;;
77736;SDS011;66903;59.926;30.404;2023-05-07T16:08:21;10.40;;;4.75;;
77736;SDS011;66903;59.926;30.404;2023-05-07T16:13:22;9.50;;;4.05;;
77736;SDS011;66903;59.926;30.404;2023-05-07T16:18:24;8.68;;;3.40;;
77736;SDS011;66903;59.926;30.404;2023-05-07T16:23:24;9.07;;;3.22;;
77736;SDS011;66903;59.926;30.404;2023-05-07T16:28:25;7.38;;;2.33;;
77736;SDS011;66903;59.926;30.404;2023-05-07T16:33:25;5.95;;;2.22;;
77736;SDS011;66903;59.926;30.404;2023-05-07T16:38:26;5.13;;;1.98;;
77736;SDS011;66903;59.926;30.404;2023-05-07T16:43:27;5.75;;;2.10;;
77736;SDS011;66903;59.926;30.404;2023-05-07T16:48:28;5.20;;;1.67;;
77736;SDS011;66903;59.926;30.404;2023-05-07T16:53:28;4.40;;;1.48;;
77736;SDS011;66903;59.926;30.404;2023-05-07T16:58:29;3.90;;;1.45;;
77736;SDS011;66903;59.926;30.404;2023-05-07T17:03:29;3.47;;;1.20;;
77736;SDS011;66903;59.926;30.404;2023-05-07T17:08:31;3.13;;;1.27;;
77736;SDS011;66903;59.926;30.404;2023-05-07T17:13:31;5.47;;;1.10;;
77736;SDS011;66903;59.926;30.404;2023-05-07T17:18:32;2.20;;;0.80;;
77736;SDS011;66903;59.926;30.404;2023-05-07T17:23:32;2.92;;;0.82;;
77736;SDS011;66903;59.926;30.404;2023-05-07T17:28:33;1.75;;;0.80;;
77736;SDS011;66903;59.926;30.404;2023-05-07T17:33:33;1.65;;;0.75;;
77736;SDS011;66903;59.926;30.404;2023-05-07T17:38:35;2.45;;;0.77;;
77736;SDS011;66903;59.926;30.404;2023-05-07T17:43:35;2.75;;;0.80;;
77736;SDS011;66903;59.926;30.404;2023-05-07T17:48:36;3.42;;;0.70;;
77736;SDS011;66903;59.926;30.404;2023-05-07T17:53:36;2.40;;;0.90;;
77736;SDS011;66903;59.926;30.404;2023-05-07T17:58:37;1.77;;;0.70;;
77736;SDS011;66903;59.926;30.404;2023-05-07T18:03:37;2.63;;;0.80;;
77736;SDS011;66903;59.926;30.404;2023-05-07T18:08:38;1.95;;;0.63;;
77736;SDS011;66903;59.926;30.404;2023-05-07T18:13:38;2.60;;;0.70;;
77736;SDS011;66903;59.926;30.404;2023-05-07T18:18:39;1.02;;;0.45;;
77736;SDS011;66903;59.926;30.404;2023-05-07T18:23:40;1.50;;;0.70;;
77736;SDS011;66903;59.926;30.404;2023-05-07T18:28:41;1.55;;;0.68;;
77736;SDS011;66903;59.926;30.404;2023-05-07T18:33:41;1.85;;;0.60;;
77736;SDS011;66903;59.926;30.404;2023-05-07T18:38:42;2.58;;;0.77;;
77736;SDS011;66903;59.926;30.404;2023-05-07T18:43:42;1.73;;;0.60;;
77736;SDS011;66903;59.926;30.404;2023-05-07T18:48:43;2.65;;;0.60;;
77736;SDS011;66903;59.926;30.404;2023-05-07T18:53:43;2.33;;;0.70;;
77736;SDS011;66903;59.926;30.404;2023-05-07T18:58:44;1.55;;;0.60;;
77736;SDS011;66903;59.926;30.404;2023-05-07T19:03:45;3.50;;;0.80;;
77736;SDS011;66903;59.926;30.404;2023-05-07T19:08:45;2.08;;;0.60;;
77736;SDS011;66903;59.926;30.404;2023-05-07T19:13:46;1.17;;;0.47;;
77736;SDS011;66903;59.926;30.404;2023-05-07T19:18:46;0.82;;;0.43;;
77736;SDS011;66903;59.926;30.404;2023-05-07T19:23:47;1.80;;;0.50;;
77736;SDS011;66903;59.926;30.404;2023-05-07T19:28:50;1.95;;;0.50;;
77736;SDS011;66903;59.926;30.404;2023-05-07T19:33:50;1.35;;;0.50;;
77736;SDS011;66903;59.926;30.404;2023-05-07T19:38:52;1.80;;;0.60;;
77736;SDS011;66903;59.926;30.404;2023-05-07T19:43:53;1.77;;;0.65;;
77736;SDS011;66903;59.926;30.404;2023-05-07T19:48:54;2.78;;;0.70;;
77736;SDS011;66903;59.926;30.404;2023-05-07T19:53:54;2.17;;;0.60;;
77736;SDS011;66903;59.926;30.404;2023-05-07T19:58:55;2.67;;;0.80;;
77736;SDS011;66903;59.926;30.404;2023-05-07T20:03:55;1.40;;;0.55;;
77736;SDS011;66903;59.926;30.404;2023-05-07T20:08:56;1.98;;;0.60;;
77736;SDS011;66903;59.926;30.404;2023-05-07T20:13:56;1.50;;;0.60;;
77736;SDS011;66903;59.926;30.404;2023-05-07T20:18:57;1.52;;;0.60;;
77736;SDS011;66903;59.926;30.404;2023-05-07T20:23:58;1.65;;;0.60;;
77736;SDS011;66903;59.926;30.404;2023-05-07T20:28:58;3.00;;;0.77;;
77736;SDS011;66903;59.926;30.404;2023-05-07T20:33:59;2.28;;;0.75;;
77736;SDS011;66903;59.926;30.404;2023-05-07T20:39:00;1.98;;;0.50;;
77736;SDS011;66903;59.926;30.404;2023-05-07T20:44:00;1.75;;;0.60;;
77736;SDS011;66903;59.926;30.404;2023-05-07T20:49:01;1.95;;;0.70;;
77736;SDS011;66903;59.926;30.404;2023-05-07T20:54:02;2.40;;;0.80;;
77736;SDS011;66903;59.926;30.404;2023-05-07T20:59:03;2.90;;;0.80;;
77736;SDS011;66903;59.926;30.404;2023-05-07T21:04:03;1.45;;;0.50;;
77736;SDS011;66903;59.926;30.404;2023-05-07T21:09:04;2.25;;;0.70;;
77736;SDS011;66903;59.926;30.404;2023-05-07T21:14:05;1.98;;;0.60;;
77736;SDS011;66903;59.926;30.404;2023-05-07T21:19:05;1.83;;;0.60;;
77736;SDS011;66903;59.926;30.404;2023-05-07T21:24:06;1.65;;;0.40;;
77736;SDS011;66903;59.926;30.404;2023-05-07T21:29:07;1.70;;;0.80;;
77736;SDS011;66903;59.926;30.404;2023-05-07T21:34:10;6.45;;;0.70;;
77736;SDS011;66903;59.926;30.404;2023-05-07T21:39:10;3.05;;;0.80;;
77736;SDS011;66903;59.926;30.404;2023-05-07T21:44:11;2.28;;;0.50;;
77736;SDS011;66903;59.926;30.404;2023-05-07T21:49:11;2.30;;;0.70;;
77736;SDS011;66903;59.926;30.404;2023-05-07T21:54:13;1.55;;;0.43;;
77736;SDS011;66903;59.926;30.404;2023-05-07T21:59:13;2.17;;;0.80;;
77736;SDS011;66903;59.926;30.404;2023-05-07T22:04:14;1.52;;;0.57;;
77736;SDS011;66903;59.926;30.404;2023-05-07T22:09:15;1.45;;;0.57;;
77736;SDS011;66903;59.926;30.404;2023-05-07T22:14:16;1.70;;;0.50;;
77736;SDS011;66903;59.926;30.404;2023-05-07T22:19:16;0.90;;;0.52;;
77736;SDS011;66903;59.926;30.404;2023-05-07T22:24:17;1.85;;;0.60;;
77736;SDS011;66903;59.926;30.404;2023-05-07T22:29:17;1.90;;;0.70;;
77736;SDS011;66903;59.926;30.404;2023-05-07T22:34:20;1.70;;;0.52;;
77736;SDS011;66903;59.926;30.404;2023-05-07T22:39:20;3.15;;;0.75;;
77736;SDS011;66903;59.926;30.404;2023-05-07T22:44:21;1.35;;;0.52;;
77736;SDS011;66903;59.926;30.404;2023-05-07T22:49:21;1.23;;;0.50;;
77736;SDS011;66903;59.926;30.404;2023-05-07T22:54:22;2.17;;;0.80;;
77736;SDS011;66903;59.926;30.404;2023-05-07T22:59:22;0.90;;;0.47;;
77736;SDS011;66903;59.926;30.404;2023-05-07T23:04:23;1.73;;;0.60;;
77736;SDS011;66903;59.926;30.404;2023-05-07T23:09:23;1.77;;;0.57;;
77736;SDS011;66903;59.926;30.404;2023-05-07T23:14:24;1.45;;;0.47;;
77736;SDS011;66903;59.926;30.404;2023-05-07T23:19:25;2.15;;;0.68;;
77736;SDS011;66903;59.926;30.404;2023-05-07T23:24:26;2.08;;;0.60;;
77736;SDS011;66903;59.926;30.404;2023-05-07T23:29:26;1.55;;;0.70;;
77736;SDS011;66903;59.926;30.404;2023-05-07T23:34:26;1.27;;;0.50;;
77736;SDS011;66903;59.926;30.404;2023-05-07T23:39:27;1.33;;;0.50;;
77736;SDS011;66903;59.926;30.404;2023-05-07T23:44:27;1.30;;;0.50;;
77736;SDS011;66903;59.926;30.404;2023-05-07T23:49:28;1.35;;;0.52;;
77736;SDS011;66903;59.926;30.404;2023-05-07T23:54:28;1.13;;;0.50;;
77736;SDS011;66903;59.926;30.404;2023-05-07T23:59:29;2.05;;;0.60;;
